sensor_id;sensor_type;location;lat;lon;timestamp;pressure;altitude;pressure_sealevel;temperature;humidity
5883;BME280;2967;51.488;6.618;2022-10-17T00:03:47;101368.69;;;16.02;100.00
5883;BME280;2967;51.488;6.618;2022-10-17T00:08:50;101384.22;;;16.08;100.00
5883;BME280;2967;51.488;6.618;2022-10-17T00:13:54;101418.59;;;16.35;100.00
5883;BME280;2967;51.488;6.618;2022-10-17T00:18:59;101421.25;;;16.24;100.00
5883;BME280;2967;51.488;6.618;2022-10-17T00:24:02;101417.00;;;16.32;100.00
5883;BME280;2967;51.488;6.618;2022-10-17T00:29:06;101331.91;;;15.84;100.00
5883;BME280;2967;51.488;6.618;2022-10-17T00:34:10;101395.50;;;16.23;100.00
5883;BME280;2967;51.488;6.618;2022-10-17T00:39:13;101405.59;;;16.30;100.00
5883;BME280;2967;51.488;6.618;2022-10-17T00:44:56;101402.94;;;16.30;100.00
5883;BME280;2967;51.488;6.618;2022-10-17T00:50:01;101263.22;;;15.53;100.00
5883;BME280;2967;51.488;6.618;2022-10-17T00:55:09;101159.41;;;14.95;100.00
5883;BME280;2967;51.488;6.618;2022-10-17T01:00:16;101407.69;;;16.38;100.00
5883;BME280;2967;51.488;6.618;2022-10-17T01:05:21;101323.56;;;15.89;100.00
5883;BME280;2967;51.488;6.618;2022-10-17T01:10:29;101402.69;;;16.44;100.00
5883;BME280;2967;51.488;6.618;2022-10-17T01:15:43;101133.13;;;14.91;100.00
5883;BME280;2967;51.488;6.618;2022-10-17T01:21:17;101402.44;;;16.47;100.00
5883;BME280;2967;51.488;6.618;2022-10-17T01:26:28;101179.88;;;15.17;100.00
5883;BME280;2967;51.488;6.618;2022-10-17T01:31:43;101098.56;;;14.67;100.00
5883;BME280;2967;51.488;6.618;2022-10-17T01:36:55;101354.88;;;16.19;100.00
5883;BME280;2967;51.488;6.618;2022-10-17T01:42:11;101237.53;;;15.52;100.00
5883;BME280;2967;51.488;6.618;2022-10-17T01:47:19;101391.03;;;16.56;100.00
5883;BME280;2967;51.488;6.618;2022-10-17T01:52:27;101344.91;;;16.32;100.00
5883;BME280;2967;51.488;6.618;2022-10-17T01:57:34;101378.44;;;16.58;100.00
5883;BME280;2967;51.488;6.618;2022-10-17T02:02:39;101300.88;;;16.16;100.00
5883;BME280;2967;51.488;6.618;2022-10-17T02:07:42;101364.81;;;16.61;100.00
5883;BME280;2967;51.488;6.618;2022-10-17T02:12:51;101261.22;;;16.00;100.00
5883;BME280;2967;51.488;6.618;2022-10-17T02:18:07;101365.66;;;16.62;100.00
5883;BME280;2967;51.488;6.618;2022-10-17T02:23:19;101325.88;;;16.37;100.00
5883;BME280;2967;51.488;6.618;2022-10-17T02:28:30;101364.69;;;16.63;100.00
5883;BME280;2967;51.488;6.618;2022-10-17T02:33:43;101292.59;;;16.30;100.00
5883;BME280;2967;51.488;6.618;2022-10-17T02:38:49;101359.19;;;16.75;100.00
5883;BME280;2967;51.488;6.618;2022-10-17T02:43:54;101355.69;;;16.75;100.00
5883;BME280;2967;51.488;6.618;2022-10-17T02:49:07;101363.09;;;16.71;100.00
5883;BME280;2967;51.488;6.618;2022-10-17T02:54:19;101170.50;;;15.46;100.00
5883;BME280;2967;51.488;6.618;2022-10-17T02:59:24;101327.66;;;16.47;100.00
5883;BME280;2967;51.488;6.618;2022-10-17T03:04:29;101336.19;;;16.52;100.00
5883;BME280;2967;51.488;6.618;2022-10-17T03:09:32;101151.72;;;15.47;100.00
5883;BME280;2967;51.488;6.618;2022-10-17T03:14:35;101374.78;;;16.70;100.00
5883;BME280;2967;51.488;6.618;2022-10-17T03:19:39;101185.16;;;15.62;100.00
5883;BME280;2967;51.488;6.618;2022-10-17T03:24:42;101159.38;;;15.52;100.00
5883;BME280;2967;51.488;6.618;2022-10-17T03:29:45;101155.84;;;15.51;100.00
5883;BME280;2967;51.488;6.618;2022-10-17T03:34:51;101225.78;;;15.88;100.00
5883;BME280;2967;51.488;6.618;2022-10-17T03:39:54;101257.91;;;16.08;100.00
5883;BME280;2967;51.488;6.618;2022-10-17T03:44:57;101232.06;;;15.97;100.00
5883;BME280;2967;51.488;6.618;2022-10-17T03:50:02;101373.28;;;16.77;100.00
5883;BME280;2967;51.488;6.618;2022-10-17T03:55:08;101161.53;;;15.47;100.00
5883;BME280;2967;51.488;6.618;2022-10-17T04:00:13;101235.38;;;15.90;100.00
5883;BME280;2967;51.488;6.618;2022-10-17T04:05:17;101397.81;;;16.82;100.00
5883;BME280;2967;51.488;6.618;2022-10-17T04:10:21;101381.19;;;16.79;100.00
5883;BME280;2967;51.488;6.618;2022-10-17T04:15:27;101388.81;;;16.83;100.00
5883;BME280;2967;51.488;6.618;2022-10-17T04:20:33;101407.16;;;16.88;100.00
5883;BME280;2967;51.488;6.618;2022-10-17T04:25:36;101400.59;;;16.92;100.00
5883;BME280;2967;51.488;6.618;2022-10-17T04:30:39;101390.25;;;16.87;100.00
5883;BME280;2967;51.488;6.618;2022-10-17T04:35:55;101266.16;;;16.16;100.00
5883;BME280;2967;51.488;6.618;2022-10-17T04:40:59;101330.59;;;16.55;100.00
5883;BME280;2967;51.488;6.618;2022-10-17T04:46:06;101410.06;;;16.96;100.00
5883;BME280;2967;51.488;6.618;2022-10-17T04:51:13;101401.44;;;16.92;100.00
5883;BME280;2967;51.488;6.618;2022-10-17T04:56:40;101257.41;;;16.03;100.00
5883;BME280;2967;51.488;6.618;2022-10-17T05:01:50;101075.97;;;14.95;100.00
5883;BME280;2967;51.488;6.618;2022-10-17T05:06:55;101033.09;;;14.76;100.00
5883;BME280;2967;51.488;6.618;2022-10-17T05:12:15;101244.47;;;15.98;100.00
5883;BME280;2967;51.488;6.618;2022-10-17T05:17:19;101445.16;;;17.13;100.00
5883;BME280;2967;51.488;6.618;2022-10-17T05:22:24;101399.78;;;16.80;100.00
5883;BME280;2967;51.488;6.618;2022-10-17T05:27:46;101361.16;;;16.73;100.00
5883;BME280;2967;51.488;6.618;2022-10-17T05:32:53;101288.25;;;16.18;100.00
5883;BME280;2967;51.488;6.618;2022-10-17T05:37:59;101254.91;;;15.91;100.00
5883;BME280;2967;51.488;6.618;2022-10-17T05:43:04;101462.03;;;17.14;100.00
5883;BME280;2967;51.488;6.618;2022-10-17T05:48:08;101450.97;;;17.07;100.00
5883;BME280;2967;51.488;6.618;2022-10-17T05:53:12;101456.44;;;17.17;100.00
5883;BME280;2967;51.488;6.618;2022-10-17T05:58:21;101360.69;;;16.57;100.00
5883;BME280;2967;51.488;6.618;2022-10-17T06:04:00;101455.84;;;17.13;100.00
5883;BME280;2967;51.488;6.618;2022-10-17T06:09:05;101404.38;;;16.78;100.00
5883;BME280;2967;51.488;6.618;2022-10-17T06:14:11;101459.75;;;17.09;100.00
5883;BME280;2967;51.488;6.618;2022-10-17T06:19:15;101129.03;;;15.09;100.00
5883;BME280;2967;51.488;6.618;2022-10-17T06:24:21;101486.47;;;17.20;100.00
5883;BME280;2967;51.488;6.618;2022-10-17T06:29:26;101424.78;;;16.90;100.00
5883;BME280;2967;51.488;6.618;2022-10-17T06:34:28;101476.22;;;17.25;100.00
5883;BME280;2967;51.488;6.618;2022-10-17T06:39:33;101484.47;;;17.33;100.00
5883;BME280;2967;51.488;6.618;2022-10-17T06:44:46;101416.41;;;16.95;100.00
5883;BME280;2967;51.488;6.618;2022-10-17T06:50:11;101388.88;;;16.61;100.00
5883;BME280;2967;51.488;6.618;2022-10-17T06:55:40;101360.94;;;16.54;100.00
5883;BME280;2967;51.488;6.618;2022-10-17T07:01:00;101343.13;;;16.44;100.00
5883;BME280;2967;51.488;6.618;2022-10-17T07:06:04;101518.50;;;17.53;100.00
5883;BME280;2967;51.488;6.618;2022-10-17T07:11:10;101511.72;;;17.49;100.00
5883;BME280;2967;51.488;6.618;2022-10-17T07:16:15;101283.88;;;16.17;100.00
5883;BME280;2967;51.488;6.618;2022-10-17T07:21:21;101521.41;;;17.61;100.00
5883;BME280;2967;51.488;6.618;2022-10-17T07:26:25;101523.66;;;17.77;100.00
5883;BME280;2967;51.488;6.618;2022-10-17T07:31:28;101521.97;;;17.76;100.00
5883;BME280;2967;51.488;6.618;2022-10-17T07:36:31;101439.00;;;17.44;100.00
5883;BME280;2967;51.488;6.618;2022-10-17T07:41:38;101546.91;;;18.08;100.00
5883;BME280;2967;51.488;6.618;2022-10-17T07:46:41;101529.34;;;18.15;100.00
5883;BME280;2967;51.488;6.618;2022-10-17T07:51:46;101538.09;;;18.17;100.00
5883;BME280;2967;51.488;6.618;2022-10-17T07:56:50;101261.09;;;16.66;100.00
5883;BME280;2967;51.488;6.618;2022-10-17T08:01:54;101548.91;;;18.47;100.00
5883;BME280;2967;51.488;6.618;2022-10-17T08:06:58;101413.78;;;17.78;100.00
5883;BME280;2967;51.488;6.618;2022-10-17T08:12:22;101570.41;;;18.77;100.00
5883;BME280;2967;51.488;6.618;2022-10-17T08:17:26;101571.25;;;18.77;100.00
5883;BME280;2967;51.488;6.618;2022-10-17T08:22:29;101583.38;;;19.01;100.00
5883;BME280;2967;51.488;6.618;2022-10-17T08:27:40;101590.63;;;19.10;100.00
5883;BME280;2967;51.488;6.618;2022-10-17T08:32:43;101441.69;;;18.17;100.00
5883;BME280;2967;51.488;6.618;2022-10-17T08:37:46;101606.31;;;19.15;100.00
5883;BME280;2967;51.488;6.618;2022-10-17T08:43:03;101610.31;;;19.20;100.00
5883;BME280;2967;51.488;6.618;2022-10-17T08:48:18;101615.16;;;19.26;100.00
5883;BME280;2967;51.488;6.618;2022-10-17T08:53:29;101533.59;;;18.78;100.00
5883;BME280;2967;51.488;6.618;2022-10-17T08:58:46;101628.75;;;19.34;100.00
5883;BME280;2967;51.488;6.618;2022-10-17T09:04:03;101507.69;;;18.68;100.00
5883;BME280;2967;51.488;6.618;2022-10-17T09:09:17;101648.00;;;19.49;100.00
5883;BME280;2967;51.488;6.618;2022-10-17T09:14:38;101485.38;;;18.58;100.00
5883;BME280;2967;51.488;6.618;2022-10-17T09:19:51;101610.28;;;19.41;100.00
5883;BME280;2967;51.488;6.618;2022-10-17T09:25:04;101654.78;;;19.83;100.00
5883;BME280;2967;51.488;6.618;2022-10-17T09:30:33;101674.72;;;19.90;100.00
5883;BME280;2967;51.488;6.618;2022-10-17T09:35:52;101694.94;;;19.84;100.00
5883;BME280;2967;51.488;6.618;2022-10-17T09:40:57;101708.19;;;19.76;100.00
5883;BME280;2967;51.488;6.618;2022-10-17T09:46:06;101710.97;;;19.65;100.00
5883;BME280;2967;51.488;6.618;2022-10-17T09:51:10;101552.72;;;18.65;100.00
5883;BME280;2967;51.488;6.618;2022-10-17T09:56:27;101719.50;;;19.50;100.00
5883;BME280;2967;51.488;6.618;2022-10-17T10:01:31;101728.47;;;19.39;100.00
5883;BME280;2967;51.488;6.618;2022-10-17T10:06:35;101656.72;;;18.91;100.00
5883;BME280;2967;51.488;6.618;2022-10-17T10:11:45;101726.53;;;19.21;100.00
5883;BME280;2967;51.488;6.618;2022-10-17T10:16:51;101576.22;;;18.41;100.00
5883;BME280;2967;51.488;6.618;2022-10-17T10:21:57;101717.00;;;19.17;100.00
5883;BME280;2967;51.488;6.618;2022-10-17T10:27:02;101606.78;;;18.49;100.00
5883;BME280;2967;51.488;6.618;2022-10-17T10:32:14;101703.81;;;19.04;100.00
5883;BME280;2967;51.488;6.618;2022-10-17T10:37:24;101455.78;;;17.46;100.00
5883;BME280;2967;51.488;6.618;2022-10-17T10:42:45;101727.13;;;19.13;100.00
5883;BME280;2967;51.488;6.618;2022-10-17T10:47:58;101709.38;;;18.92;100.00
5883;BME280;2967;51.488;6.618;2022-10-17T10:53:12;101480.59;;;17.37;100.00
5883;BME280;2967;51.488;6.618;2022-10-17T10:58:26;101636.25;;;18.38;100.00
5883;BME280;2967;51.488;6.618;2022-10-17T11:03:55;101765.34;;;19.06;100.00
5883;BME280;2967;51.488;6.618;2022-10-17T11:09:10;101755.31;;;19.19;100.00
5883;BME280;2967;51.488;6.618;2022-10-17T11:14:20;101627.13;;;18.41;100.00
5883;BME280;2967;51.488;6.618;2022-10-17T11:19:32;101752.63;;;19.19;100.00
5883;BME280;2967;51.488;6.618;2022-10-17T11:24:42;101596.97;;;18.28;100.00
5883;BME280;2967;51.488;6.618;2022-10-17T11:29:48;101768.72;;;19.19;100.00
5883;BME280;2967;51.488;6.618;2022-10-17T11:34:56;101596.31;;;18.04;100.00
5883;BME280;2967;51.488;6.618;2022-10-17T11:40:04;101801.59;;;19.32;100.00
5883;BME280;2967;51.488;6.618;2022-10-17T11:45:10;101759.00;;;19.07;100.00
5883;BME280;2967;51.488;6.618;2022-10-17T11:50:22;101800.50;;;19.34;100.00
5883;BME280;2967;51.488;6.618;2022-10-17T11:55:46;101794.38;;;19.32;100.00
5883;BME280;2967;51.488;6.618;2022-10-17T12:00:55;101808.94;;;19.30;100.00
5883;BME280;2967;51.488;6.618;2022-10-17T12:06:09;101756.53;;;18.94;100.00
5883;BME280;2967;51.488;6.618;2022-10-17T12:11:24;101791.78;;;19.10;100.00
5883;BME280;2967;51.488;6.618;2022-10-17T12:16:43;101761.03;;;18.94;100.00
5883;BME280;2967;51.488;6.618;2022-10-17T12:22:03;101737.22;;;18.80;100.00
5883;BME280;2967;51.488;6.618;2022-10-17T12:27:36;101817.44;;;19.35;100.00
5883;BME280;2967;51.488;6.618;2022-10-17T12:32:57;101815.84;;;19.32;100.00
5883;BME280;2967;51.488;6.618;2022-10-17T12:43:53;101468.84;;;17.18;100.00
5883;BME280;2967;51.488;6.618;2022-10-17T12:49:38;101562.13;;;17.76;100.00
5883;BME280;2967;51.488;6.618;2022-10-17T12:54:53;101839.09;;;19.43;100.00
5883;BME280;2967;51.488;6.618;2022-10-17T13:00:32;101839.91;;;19.54;100.00
5883;BME280;2967;51.488;6.618;2022-10-17T13:05:39;101452.75;;;17.40;100.00
5883;BME280;2967;51.488;6.618;2022-10-17T13:10:44;101823.78;;;19.54;100.00
5883;BME280;2967;51.488;6.618;2022-10-17T13:15:54;101707.13;;;18.77;100.00
5883;BME280;2967;51.488;6.618;2022-10-17T13:21:02;101852.59;;;19.73;100.00
5883;BME280;2967;51.488;6.618;2022-10-17T13:26:12;101734.72;;;18.88;100.00
5883;BME280;2967;51.488;6.618;2022-10-17T13:31:27;101878.19;;;19.56;100.00
5883;BME280;2967;51.488;6.618;2022-10-17T13:36:33;101878.69;;;19.50;100.00
5883;BME280;2967;51.488;6.618;2022-10-17T13:41:39;101610.88;;;17.90;100.00
5883;BME280;2967;51.488;6.618;2022-10-17T13:46:50;101825.59;;;19.02;100.00
5883;BME280;2967;51.488;6.618;2022-10-17T13:51:55;101829.00;;;19.04;100.00
5883;BME280;2967;51.488;6.618;2022-10-17T13:57:00;101863.13;;;19.44;100.00
5883;BME280;2967;51.488;6.618;2022-10-17T14:02:13;101490.09;;;17.19;100.00
5883;BME280;2967;51.488;6.618;2022-10-17T14:07:26;101910.28;;;19.78;100.00
5883;BME280;2967;51.488;6.618;2022-10-17T14:12:53;101581.44;;;17.79;100.00
5883;BME280;2967;51.488;6.618;2022-10-17T14:18:01;101908.69;;;19.76;100.00
5883;BME280;2967;51.488;6.618;2022-10-17T14:23:30;101911.78;;;19.71;100.00
5883;BME280;2967;51.488;6.618;2022-10-17T14:28:34;101916.09;;;19.63;100.00
5883;BME280;2967;51.488;6.618;2022-10-17T14:33:47;101743.53;;;18.48;100.00
5883;BME280;2967;51.488;6.618;2022-10-17T14:38:55;101919.38;;;19.66;100.00
5883;BME280;2967;51.488;6.618;2022-10-17T14:44:01;101787.78;;;18.84;100.00
5883;BME280;2967;51.488;6.618;2022-10-17T14:49:16;101733.84;;;18.36;100.00
5883;BME280;2967;51.488;6.618;2022-10-17T14:54:27;101978.91;;;19.71;100.00
5883;BME280;2967;51.488;6.618;2022-10-17T14:59:30;101983.09;;;19.64;100.00
5883;BME280;2967;51.488;6.618;2022-10-17T15:04:56;101899.94;;;19.11;100.00
5883;BME280;2967;51.488;6.618;2022-10-17T15:09:59;101999.06;;;19.66;100.00
5883;BME280;2967;51.488;6.618;2022-10-17T15:15:05;101992.81;;;19.76;100.00
5883;BME280;2967;51.488;6.618;2022-10-17T15:20:20;101958.78;;;19.45;100.00
5883;BME280;2967;51.488;6.618;2022-10-17T15:25:30;101926.50;;;19.14;100.00
5883;BME280;2967;51.488;6.618;2022-10-17T15:30:34;101986.84;;;19.30;100.00
5883;BME280;2967;51.488;6.618;2022-10-17T15:35:40;101730.13;;;17.72;100.00
5883;BME280;2967;51.488;6.618;2022-10-17T15:40:46;101950.72;;;18.81;100.00
5883;BME280;2967;51.488;6.618;2022-10-17T15:45:52;102031.03;;;19.15;100.00
5883;BME280;2967;51.488;6.618;2022-10-17T15:50:59;101929.63;;;18.44;100.00
5883;BME280;2967;51.488;6.618;2022-10-17T15:56:05;102046.25;;;19.15;100.00
5883;BME280;2967;51.488;6.618;2022-10-17T16:01:18;102057.00;;;19.04;100.00
5883;BME280;2967;51.488;6.618;2022-10-17T16:06:25;101871.13;;;17.94;100.00
5883;BME280;2967;51.488;6.618;2022-10-17T16:11:32;101864.19;;;17.80;100.00
5883;BME280;2967;51.488;6.618;2022-10-17T16:16:36;101988.41;;;18.23;100.00
5883;BME280;2967;51.488;6.618;2022-10-17T16:21:41;102053.03;;;18.42;100.00
5883;BME280;2967;51.488;6.618;2022-10-17T16:26:44;102051.44;;;18.40;100.00
5883;BME280;2967;51.488;6.618;2022-10-17T16:31:46;102059.38;;;18.41;100.00
5883;BME280;2967;51.488;6.618;2022-10-17T16:36:53;102051.34;;;18.41;100.00
5883;BME280;2967;51.488;6.618;2022-10-17T16:41:55;102019.91;;;18.09;100.00
5883;BME280;2967;51.488;6.618;2022-10-17T16:46:59;102081.50;;;18.32;100.00
5883;BME280;2967;51.488;6.618;2022-10-17T16:52:05;102085.16;;;18.31;100.00
5883;BME280;2967;51.488;6.618;2022-10-17T16:57:08;102021.56;;;17.88;100.00
5883;BME280;2967;51.488;6.618;2022-10-17T17:02:12;102013.16;;;17.92;100.00
5883;BME280;2967;51.488;6.618;2022-10-17T17:07:22;102025.59;;;17.93;100.00
5883;BME280;2967;51.488;6.618;2022-10-17T17:12:25;102091.50;;;18.30;100.00
5883;BME280;2967;51.488;6.618;2022-10-17T17:17:31;102090.84;;;18.27;100.00
5883;BME280;2967;51.488;6.618;2022-10-17T17:22:51;102090.09;;;18.25;100.00
5883;BME280;2967;51.488;6.618;2022-10-17T17:27:54;101953.94;;;17.26;100.00
5883;BME280;2967;51.488;6.618;2022-10-17T17:32:57;101881.16;;;16.63;100.00
5883;BME280;2967;51.488;6.618;2022-10-17T17:38:03;102004.78;;;17.26;100.00
5883;BME280;2967;51.488;6.618;2022-10-17T17:43:12;101865.28;;;16.49;100.00
5883;BME280;2967;51.488;6.618;2022-10-17T17:48:16;101997.72;;;17.25;100.00
5883;BME280;2967;51.488;6.618;2022-10-17T17:53:22;101893.03;;;16.59;100.00
5883;BME280;2967;51.488;6.618;2022-10-17T17:58:29;101870.84;;;16.34;100.00
5883;BME280;2967;51.488;6.618;2022-10-17T18:03:33;102120.84;;;17.85;100.00
5883;BME280;2967;51.488;6.618;2022-10-17T18:08:37;102077.25;;;17.59;100.00
5883;BME280;2967;51.488;6.618;2022-10-17T18:13:40;101947.41;;;16.71;100.00
5883;BME280;2967;51.488;6.618;2022-10-17T18:18:44;102000.34;;;17.02;100.00
5883;BME280;2967;51.488;6.618;2022-10-17T18:23:48;102165.88;;;17.91;100.00
5883;BME280;2967;51.488;6.618;2022-10-17T18:28:53;102146.13;;;17.81;100.00
5883;BME280;2967;51.488;6.618;2022-10-17T18:33:58;102002.09;;;16.90;100.00
5883;BME280;2967;51.488;6.618;2022-10-17T18:39:19;102112.06;;;17.47;100.00
5883;BME280;2967;51.488;6.618;2022-10-17T18:44:22;102167.44;;;17.82;100.00
5883;BME280;2967;51.488;6.618;2022-10-17T18:49:25;102006.91;;;16.85;100.00
5883;BME280;2967;51.488;6.618;2022-10-17T18:54:29;101954.91;;;16.41;100.00
5883;BME280;2967;51.488;6.618;2022-10-17T18:59:35;102087.72;;;17.14;100.00
5883;BME280;2967;51.488;6.618;2022-10-17T19:04:38;102198.50;;;17.72;100.00
5883;BME280;2967;51.488;6.618;2022-10-17T19:09:43;102103.31;;;17.20;100.00
5883;BME280;2967;51.488;6.618;2022-10-17T19:14:48;101850.81;;;15.66;100.00
5883;BME280;2967;51.488;6.618;2022-10-17T19:19:51;102117.09;;;17.26;100.00
5883;BME280;2967;51.488;6.618;2022-10-17T19:24:57;102028.75;;;16.67;100.00
5883;BME280;2967;51.488;6.618;2022-10-17T19:30:01;102060.69;;;16.68;100.00
5883;BME280;2967;51.488;6.618;2022-10-17T19:35:05;102124.94;;;17.04;100.00
5883;BME280;2967;51.488;6.618;2022-10-17T19:40:13;102204.19;;;17.55;100.00
5883;BME280;2967;51.488;6.618;2022-10-17T19:45:20;102071.94;;;16.73;100.00
5883;BME280;2967;51.488;6.618;2022-10-17T19:50:23;102087.84;;;16.87;100.00
5883;BME280;2967;51.488;6.618;2022-10-17T19:55:31;102012.69;;;16.29;100.00
5883;BME280;2967;51.488;6.618;2022-10-17T20:00:35;102009.72;;;16.34;100.00
5883;BME280;2967;51.488;6.618;2022-10-17T20:05:38;102008.72;;;16.22;100.00
5883;BME280;2967;51.488;6.618;2022-10-17T20:10:42;102220.59;;;17.51;100.00
5883;BME280;2967;51.488;6.618;2022-10-17T20:15:52;101851.19;;;15.35;100.00
5883;BME280;2967;51.488;6.618;2022-10-17T20:21:01;101950.63;;;15.89;100.00
5883;BME280;2967;51.488;6.618;2022-10-17T20:26:13;102147.06;;;17.06;100.00
5883;BME280;2967;51.488;6.618;2022-10-17T20:31:41;102185.25;;;17.21;100.00
5883;BME280;2967;51.488;6.618;2022-10-17T20:36:46;102209.66;;;17.16;100.00
5883;BME280;2967;51.488;6.618;2022-10-17T20:41:51;102187.09;;;17.20;100.00
5883;BME280;2967;51.488;6.618;2022-10-17T20:46:54;101971.31;;;15.85;100.00
5883;BME280;2967;51.488;6.618;2022-10-17T20:52:05;102226.72;;;17.40;100.00
5883;BME280;2967;51.488;6.618;2022-10-17T20:57:10;101981.25;;;15.95;100.00
5883;BME280;2967;51.488;6.618;2022-10-17T21:02:13;102222.41;;;17.38;100.00
5883;BME280;2967;51.488;6.618;2022-10-17T21:07:16;102236.19;;;17.32;100.00
5883;BME280;2967;51.488;6.618;2022-10-17T21:12:22;102182.69;;;16.94;100.00
5883;BME280;2967;51.488;6.618;2022-10-17T21:17:39;102089.72;;;16.35;100.00
5883;BME280;2967;51.488;6.618;2022-10-17T21:22:42;102186.09;;;16.71;100.00
5883;BME280;2967;51.488;6.618;2022-10-17T21:27:51;102246.63;;;16.97;100.00
5883;BME280;2967;51.488;6.618;2022-10-17T21:32:58;102243.53;;;16.91;100.00
5883;BME280;2967;51.488;6.618;2022-10-17T21:38:03;102234.22;;;16.84;100.00
5883;BME280;2967;51.488;6.618;2022-10-17T21:43:46;102260.97;;;16.96;100.00
5883;BME280;2967;51.488;6.618;2022-10-17T21:48:50;101919.03;;;14.91;100.00
5883;BME280;2967;51.488;6.618;2022-10-17T21:53:54;102176.50;;;16.42;100.00
5883;BME280;2967;51.488;6.618;2022-10-17T21:59:08;102251.50;;;16.78;100.00
5883;BME280;2967;51.488;6.618;2022-10-17T22:04:25;102122.16;;;15.91;100.00
5883;BME280;2967;51.488;6.618;2022-10-17T22:09:35;102172.38;;;15.98;100.00
5883;BME280;2967;51.488;6.618;2022-10-17T22:15:00;101786.22;;;13.76;100.00
5883;BME280;2967;51.488;6.618;2022-10-17T22:20:22;102280.91;;;16.78;100.00
5883;BME280;2967;51.488;6.618;2022-10-17T22:25:25;102294.19;;;16.80;100.00
5883;BME280;2967;51.488;6.618;2022-10-17T22:30:30;101981.44;;;15.01;100.00
5883;BME280;2967;51.488;6.618;2022-10-17T22:35:32;102283.19;;;16.84;100.00
5883;BME280;2967;51.488;6.618;2022-10-17T22:40:37;102130.91;;;15.93;100.00
5883;BME280;2967;51.488;6.618;2022-10-17T22:45:52;102229.44;;;16.50;100.00
5883;BME280;2967;51.488;6.618;2022-10-17T22:51:00;102280.28;;;16.75;100.00
5883;BME280;2967;51.488;6.618;2022-10-17T22:56:06;102207.00;;;16.12;100.00
5883;BME280;2967;51.488;6.618;2022-10-17T23:01:16;102296.41;;;16.73;100.00
5883;BME280;2967;51.488;6.618;2022-10-17T23:06:21;102240.94;;;16.24;100.00
5883;BME280;2967;51.488;6.618;2022-10-17T23:11:27;102231.19;;;16.23;100.00
5883;BME280;2967;51.488;6.618;2022-10-17T23:16:41;102016.56;;;14.93;100.00
5883;BME280;2967;51.488;6.618;2022-10-17T23:21:45;102297.63;;;16.55;100.00
5883;BME280;2967;51.488;6.618;2022-10-17T23:26:48;102301.53;;;16.64;100.00
5883;BME280;2967;51.488;6.618;2022-10-17T23:31:54;102033.34;;;15.08;100.00
5883;BME280;2967;51.488;6.618;2022-10-17T23:37:13;102307.00;;;16.75;100.00
5883;BME280;2967;51.488;6.618;2022-10-17T23:42:21;102295.38;;;16.76;100.00
5883;BME280;2967;51.488;6.618;2022-10-17T23:47:25;102051.34;;;15.32;100.00
5883;BME280;2967;51.488;6.618;2022-10-17T23:52:30;102068.88;;;15.36;100.00
5883;BME280;2967;51.488;6.618;2022-10-17T23:57:33;102263.84;;;16.54;100.00
